createdAt,value
2023-01-27T00:00:23.144Z,0
2023-01-27T00:01:39.452Z,0
2023-01-27T00:02:55.734Z,0
2023-01-27T00:04:12.032Z,0
2023-01-27T00:05:28.339Z,0
2023-01-27T00:06:44.613Z,0
2023-01-27T00:08:00.912Z,0
2023-01-27T00:09:17.215Z,0
2023-01-27T00:10:33.510Z,0
2023-01-27T00:11:48.812Z,0
2023-01-27T00:13:05.107Z,0
2023-01-27T00:14:21.391Z,0
2023-01-27T00:15:37.688Z,0
2023-01-27T00:16:53.977Z,0
2023-01-27T00:18:10.271Z,0
2023-01-27T00:19:26.569Z,0
2023-01-27T00:20:42.865Z,0
2023-01-27T00:21:59.169Z,0
2023-01-27T00:23:15.446Z,0
2023-01-27T00:24:31.757Z,0
2023-01-27T00:25:48.051Z,0
2023-01-27T00:27:04.334Z,0
2023-01-27T00:28:19.637Z,0
2023-01-27T00:29:35.935Z,0
2023-01-27T00:30:52.242Z,0
2023-01-27T00:32:08.533Z,0
2023-01-27T00:33:24.821Z,0
2023-01-27T00:34:41.107Z,0
2023-01-27T00:35:57.414Z,0
2023-01-27T00:37:13.707Z,0
2023-01-27T00:38:29.998Z,0
2023-01-27T00:39:46.293Z,0
2023-01-27T00:41:02.572Z,0
2023-01-27T00:42:18.876Z,0
2023-01-27T00:43:35.178Z,0
2023-01-27T00:44:50.485Z,0
2023-01-27T00:46:06.765Z,0
2023-01-27T00:47:23.059Z,0
2023-01-27T00:48:39.351Z,0
2023-01-27T00:49:55.648Z,0
2023-01-27T00:51:11.941Z,0
2023-01-27T00:52:28.251Z,0
2023-01-27T00:53:44.539Z,0
2023-01-27T00:55:00.831Z,0
2023-01-27T00:56:17.114Z,0
2023-01-27T00:57:33.420Z,0
2023-01-27T00:58:49.701Z,0
2023-01-27T01:00:05.999Z,0
2023-01-27T01:01:21.304Z,0
2023-01-27T01:02:37.604Z,0
2023-01-27T01:03:53.905Z,0
2023-01-27T01:05:10.200Z,0
2023-01-27T01:06:26.487Z,0
2023-01-27T01:07:42.787Z,0
2023-01-27T01:08:59.061Z,0
2023-01-27T01:10:15.375Z,0
2023-01-27T01:11:31.660Z,0
2023-01-27T01:12:47.962Z,0
2023-01-27T01:14:04.236Z,0
2023-01-27T01:15:20.536Z,0
2023-01-27T01:16:36.835Z,0
2023-01-27T01:17:52.138Z,0
2023-01-27T01:19:08.435Z,0
2023-01-27T01:20:24.725Z,0
2023-01-27T01:21:41.015Z,0
2023-01-27T01:22:57.305Z,0
2023-01-27T01:24:13.612Z,0
2023-01-27T01:25:28.931Z,0
2023-01-27T01:26:45.224Z,0
2023-01-27T01:28:01.515Z,0
2023-01-27T01:29:17.808Z,0
2023-01-27T01:30:34.094Z,0
2023-01-27T01:31:50.385Z,0
2023-01-27T01:33:06.679Z,0
2023-01-27T01:34:22.988Z,0
2023-01-27T01:35:39.266Z,0
2023-01-27T01:36:55.567Z,0
2023-01-27T01:38:11.850Z,0
2023-01-27T01:39:28.163Z,0
2023-01-27T01:40:44.454Z,0
2023-01-27T01:41:59.756Z,0
2023-01-27T01:43:16.042Z,0
2023-01-27T01:44:32.348Z,0
2023-01-27T01:47:04.937Z,0
2023-01-27T01:48:21.217Z,0
2023-01-27T01:49:37.517Z,0
2023-01-27T01:50:53.818Z,0
2023-01-27T01:52:10.109Z,0
2023-01-27T01:53:26.403Z,0
2023-01-27T01:54:42.700Z,0
2023-01-27T01:55:58.988Z,0
2023-01-27T01:57:15.288Z,0
2023-01-27T01:58:30.586Z,0
2023-01-27T01:59:46.881Z,0
2023-01-27T02:01:03.187Z,0
2023-01-27T02:02:19.462Z,0
2023-01-27T02:03:35.767Z,0
2023-01-27T02:04:52.060Z,0
2023-01-27T02:06:08.344Z,0
2023-01-27T02:07:24.638Z,0
2023-01-27T02:08:40.933Z,0
2023-01-27T02:09:57.225Z,0
2023-01-27T02:11:13.527Z,0
2023-01-27T02:12:29.815Z,0
2023-01-27T02:13:46.119Z,0
2023-01-27T02:15:01.414Z,0
2023-01-27T02:16:17.707Z,0
2023-01-27T02:17:34.001Z,0
2023-01-27T02:18:50.293Z,0
2023-01-27T02:20:06.585Z,0
2023-01-27T02:21:22.895Z,0
2023-01-27T02:22:39.189Z,0
2023-01-27T02:23:55.470Z,0
2023-01-27T02:25:11.765Z,0
2023-01-27T02:26:28.069Z,0
2023-01-27T02:27:44.350Z,0
2023-01-27T02:29:00.647Z,0
2023-01-27T02:30:16.946Z,0
2023-01-27T02:31:32.250Z,0
2023-01-27T02:32:48.554Z,0
2023-01-27T02:34:04.836Z,0
2023-01-27T02:35:21.129Z,0
2023-01-27T02:36:37.420Z,0
2023-01-27T02:37:53.713Z,0
2023-01-27T02:39:10.014Z,0
2023-01-27T02:40:26.307Z,0
2023-01-27T02:41:42.593Z,0
2023-01-27T02:42:58.888Z,0
2023-01-27T02:44:15.199Z,0
2023-01-27T02:45:31.482Z,0
2023-01-27T02:46:47.774Z,0
2023-01-27T02:48:03.079Z,0
2023-01-27T02:49:19.376Z,0
2023-01-27T02:50:35.668Z,0
2023-01-27T02:51:51.968Z,0
2023-01-27T02:53:08.264Z,0
2023-01-27T02:54:24.557Z,0
2023-01-27T02:55:40.856Z,0
2023-01-27T02:56:57.134Z,0
2023-01-27T02:58:13.442Z,0
2023-01-27T02:59:29.736Z,0
2023-01-27T03:00:46.022Z,0
2023-01-27T03:02:02.313Z,0
2023-01-27T03:03:18.599Z,0
2023-01-27T03:04:33.927Z,0
2023-01-27T03:05:50.215Z,0
2023-01-27T03:07:06.510Z,0
2023-01-27T03:08:22.798Z,0
2023-01-27T03:09:39.086Z,0
2023-01-27T03:10:55.391Z,0
2023-01-27T03:12:11.679Z,0
2023-01-27T03:13:27.973Z,0
2023-01-27T03:14:44.277Z,0
2023-01-27T03:16:00.551Z,0
2023-01-27T03:17:16.853Z,0
2023-01-27T03:18:33.151Z,0
2023-01-27T03:19:49.442Z,0
2023-01-27T03:21:04.746Z,0
2023-01-27T03:22:21.045Z,0
2023-01-27T03:23:37.328Z,0
2023-01-27T03:24:53.633Z,0
2023-01-27T03:26:09.925Z,0
2023-01-27T03:27:26.226Z,0
2023-01-27T03:28:42.509Z,0
2023-01-27T03:29:58.797Z,0
2023-01-27T03:31:15.090Z,0
2023-01-27T03:32:31.394Z,0
2023-01-27T03:33:47.679Z,0
2023-01-27T03:35:03.970Z,0
2023-01-27T03:36:20.265Z,0
2023-01-27T03:37:35.572Z,0
2023-01-27T03:38:51.875Z,0
2023-01-27T03:40:08.159Z,0
2023-01-27T03:41:24.463Z,0
2023-01-27T03:42:40.762Z,0
2023-01-27T03:43:57.059Z,0
2023-01-27T03:45:13.340Z,0
2023-01-27T03:46:29.637Z,0
2023-01-27T03:47:45.931Z,0
2023-01-27T03:49:02.224Z,0
2023-01-27T03:50:18.511Z,0
2023-01-27T03:51:34.800Z,0
2023-01-27T03:52:51.111Z,0
2023-01-27T03:54:06.404Z,0
2023-01-27T03:55:22.706Z,0
2023-01-27T03:56:38.994Z,0
2023-01-27T03:57:55.301Z,0
2023-01-27T03:59:11.590Z,0
2023-01-27T04:00:27.885Z,0
2023-01-27T04:01:44.174Z,0
2023-01-27T04:03:00.462Z,0
2023-01-27T04:04:16.756Z,0
2023-01-27T04:05:33.063Z,0
2023-01-27T04:06:49.343Z,0
2023-01-27T04:08:05.641Z,0
2023-01-27T04:09:21.937Z,0
2023-01-27T04:10:37.237Z,0
2023-01-27T04:11:53.548Z,0
2023-01-27T04:13:09.829Z,0
2023-01-27T04:14:26.136Z,0
2023-01-27T04:15:42.415Z,0
2023-01-27T04:16:58.705Z,0
2023-01-27T04:18:15.015Z,0
2023-01-27T04:19:31.311Z,0
2023-01-27T04:20:47.604Z,0
2023-01-27T04:22:03.879Z,0
2023-01-27T04:23:20.188Z,0
2023-01-27T04:24:36.482Z,0
2023-01-27T04:25:52.766Z,0
2023-01-27T04:27:08.070Z,0
2023-01-27T04:28:24.363Z,0
2023-01-27T04:29:40.658Z,0
2023-01-27T04:30:56.953Z,0
2023-01-27T04:32:13.255Z,0
2023-01-27T04:33:29.556Z,0
2023-01-27T04:34:45.847Z,0
2023-01-27T04:36:02.127Z,0
2023-01-27T04:37:18.432Z,0
2023-01-27T04:38:34.713Z,0
2023-01-27T04:39:51.012Z,0
2023-01-27T04:41:07.315Z,0
2023-01-27T04:42:23.601Z,0
2023-01-27T04:43:38.915Z,0
2023-01-27T04:44:55.207Z,0
2023-01-27T04:46:11.506Z,0
2023-01-27T04:47:27.789Z,0
2023-01-27T04:48:44.080Z,0
2023-01-27T04:50:00.387Z,0
2023-01-27T04:51:16.677Z,0
2023-01-27T04:52:32.956Z,0
2023-01-27T04:53:49.259Z,0
2023-01-27T04:55:05.550Z,0
2023-01-27T04:56:21.838Z,0
2023-01-27T04:57:38.136Z,0
2023-01-27T04:58:54.440Z,0
2023-01-27T05:00:09.748Z,0
2023-01-27T05:01:26.027Z,0
2023-01-27T05:02:42.334Z,0
2023-01-27T05:03:58.624Z,0
2023-01-27T05:05:14.927Z,0
2023-01-27T05:06:31.203Z,0
2023-01-27T05:07:47.513Z,0
2023-01-27T05:09:03.802Z,0
2023-01-27T05:10:20.080Z,0
2023-01-27T05:11:36.379Z,0
2023-01-27T05:12:52.671Z,0
2023-01-27T05:14:08.973Z,0
2023-01-27T05:15:25.258Z,0
2023-01-27T05:16:40.578Z,0
2023-01-27T05:17:56.864Z,0
2023-01-27T05:19:13.154Z,0
2023-01-27T05:20:29.456Z,0
2023-01-27T05:21:45.752Z,0
2023-01-27T05:23:02.031Z,0
2023-01-27T05:24:18.325Z,0
2023-01-27T05:25:34.636Z,0
2023-01-27T05:26:50.916Z,0
2023-01-27T05:28:07.221Z,0
2023-01-27T05:29:23.511Z,0
2023-01-27T05:30:39.801Z,0
2023-01-27T05:31:56.086Z,0
2023-01-27T05:33:11.415Z,0
2023-01-27T05:34:27.698Z,0
2023-01-27T05:35:43.998Z,0
2023-01-27T05:37:00.279Z,0
2023-01-27T05:38:16.578Z,0
2023-01-27T05:39:32.885Z,0
2023-01-27T05:40:48.188Z,0
2023-01-27T05:43:20.760Z,0
2023-01-27T05:44:37.065Z,0
2023-01-27T05:45:53.346Z,0
2023-01-27T05:47:09.656Z,0
2023-01-27T05:48:25.943Z,0
2023-01-27T05:49:42.244Z,0
2023-01-27T05:50:58.529Z,0
2023-01-27T05:52:14.820Z,0
2023-01-27T05:53:31.125Z,0
2023-01-27T05:54:47.404Z,0
2023-01-27T05:57:19.999Z,0
2023-01-27T05:58:35.297Z,0
2023-01-27T05:59:51.604Z,0
2023-01-27T06:01:07.887Z,0
2023-01-27T06:02:24.188Z,0
2023-01-27T06:03:40.489Z,0
2023-01-27T06:04:56.778Z,0
2023-01-27T06:06:13.066Z,0
2023-01-27T06:07:29.354Z,0
2023-01-27T06:08:45.662Z,0
2023-01-27T06:10:01.958Z,0
2023-01-27T06:11:18.252Z,0
2023-01-27T06:12:34.526Z,0
2023-01-27T06:13:50.824Z,0
2023-01-27T06:15:06.135Z,0
2023-01-27T06:16:22.432Z,0
2023-01-27T06:17:38.720Z,0
2023-01-27T06:18:55.012Z,0
2023-01-27T06:20:11.321Z,0
2023-01-27T06:21:27.599Z,0
2023-01-27T06:22:43.909Z,0
2023-01-27T06:24:00.189Z,0
2023-01-27T06:25:16.493Z,0
2023-01-27T06:26:32.788Z,0
2023-01-27T06:27:49.065Z,0
2023-01-27T06:29:05.365Z,0
2023-01-27T06:30:21.657Z,0
2023-01-27T06:31:36.913Z,1
2023-01-27T06:32:53.177Z,1
2023-01-27T06:34:09.400Z,1
2023-01-27T06:35:25.649Z,1
2023-01-27T06:36:41.886Z,1
2023-01-27T06:37:58.124Z,2
2023-01-27T06:39:14.376Z,2
2023-01-27T06:40:30.614Z,1
2023-01-27T06:41:46.859Z,2
2023-01-27T06:43:03.097Z,1
2023-01-27T06:44:19.339Z,3
2023-01-27T06:45:35.576Z,9
2023-01-27T06:46:51.823Z,5
2023-01-27T06:48:07.076Z,8
2023-01-27T06:49:23.315Z,10
2023-01-27T06:50:39.558Z,17
2023-01-27T06:51:55.783Z,16
2023-01-27T06:53:12.027Z,15
2023-01-27T06:54:28.264Z,14
2023-01-27T06:55:44.498Z,17
2023-01-27T06:57:00.752Z,20
2023-01-27T06:58:16.983Z,24
2023-01-27T06:59:33.236Z,24
2023-01-27T07:00:49.462Z,27
2023-01-27T07:02:05.702Z,34
2023-01-27T07:03:21.948Z,38
2023-01-27T07:04:37.203Z,43
2023-01-27T07:05:53.440Z,45
2023-01-27T07:07:09.683Z,54
2023-01-27T07:08:25.912Z,56
2023-01-27T07:09:42.167Z,57
2023-01-27T07:10:58.401Z,60
2023-01-27T07:12:14.630Z,66
2023-01-27T07:13:30.866Z,66
2023-01-27T07:14:47.111Z,69
2023-01-27T07:16:03.363Z,73
2023-01-27T07:17:19.588Z,75
2023-01-27T07:18:35.843Z,75
2023-01-27T07:19:52.072Z,76
2023-01-27T07:21:07.326Z,76
2023-01-27T07:22:23.565Z,75
2023-01-27T07:23:39.810Z,74
2023-01-27T07:24:56.054Z,75
2023-01-27T07:26:12.291Z,74
2023-01-27T07:27:28.520Z,75
2023-01-27T07:28:44.767Z,77
2023-01-27T07:30:01.011Z,76
2023-01-27T07:31:17.241Z,78
2023-01-27T07:32:33.493Z,79
2023-01-27T07:33:49.719Z,75
2023-01-27T07:35:05.972Z,71
2023-01-27T07:36:22.203Z,71
2023-01-27T07:37:37.453Z,76
2023-01-27T07:38:53.695Z,62
2023-01-27T07:40:09.931Z,57
2023-01-27T07:41:26.169Z,68
2023-01-27T07:42:42.421Z,95
2023-01-27T07:43:58.652Z,162
2023-01-27T07:45:14.905Z,179
2023-01-27T07:46:31.135Z,164
2023-01-27T07:47:47.377Z,184
2023-01-27T07:49:03.615Z,198
2023-01-27T07:50:19.853Z,196
2023-01-27T07:51:36.090Z,184
2023-01-27T07:52:52.336Z,170
2023-01-27T07:54:07.590Z,165
2023-01-27T07:55:23.821Z,170
2023-01-27T07:56:40.070Z,173
2023-01-27T07:57:56.302Z,190
2023-01-27T07:59:12.544Z,197
2023-01-27T08:00:28.780Z,206
2023-01-27T08:01:45.024Z,207
2023-01-27T08:03:01.273Z,208
2023-01-27T08:04:17.498Z,210
2023-01-27T08:05:33.739Z,215
2023-01-27T08:06:49.991Z,218
2023-01-27T08:08:06.221Z,222
2023-01-27T08:09:22.467Z,213
2023-01-27T08:10:37.730Z,192
2023-01-27T08:11:53.963Z,203
2023-01-27T08:13:10.199Z,222
2023-01-27T08:14:26.432Z,240
2023-01-27T08:15:42.681Z,234
2023-01-27T08:16:58.916Z,233
2023-01-27T08:18:15.163Z,247
2023-01-27T08:19:31.405Z,260
2023-01-27T08:20:47.640Z,275
2023-01-27T08:22:03.878Z,283
2023-01-27T08:23:20.108Z,285
2023-01-27T08:24:36.361Z,290
2023-01-27T08:25:52.602Z,272
2023-01-27T08:27:07.863Z,268
2023-01-27T08:28:24.103Z,278
2023-01-27T08:29:40.334Z,283
2023-01-27T08:30:56.568Z,296
2023-01-27T08:32:12.812Z,291
2023-01-27T08:33:29.051Z,276
2023-01-27T08:34:45.301Z,276
2023-01-27T08:36:01.533Z,279
2023-01-27T08:37:17.774Z,271
2023-01-27T08:38:34.010Z,287
2023-01-27T08:39:50.261Z,269
2023-01-27T08:41:06.499Z,308
2023-01-27T08:42:22.728Z,354
2023-01-27T08:43:37.991Z,338
2023-01-27T08:44:54.226Z,301
2023-01-27T08:46:10.464Z,328
2023-01-27T08:47:26.694Z,353
2023-01-27T08:48:42.948Z,389
2023-01-27T08:49:59.193Z,371
2023-01-27T08:51:15.424Z,420
2023-01-27T08:52:31.666Z,460
2023-01-27T08:53:47.895Z,453
2023-01-27T08:55:04.137Z,401
2023-01-27T08:56:20.385Z,359
2023-01-27T08:57:36.630Z,354
2023-01-27T08:58:52.862Z,327
2023-01-27T09:00:08.109Z,307
2023-01-27T09:01:24.359Z,314
2023-01-27T09:02:40.587Z,331
2023-01-27T09:03:56.840Z,313
2023-01-27T09:05:13.066Z,284
2023-01-27T09:06:29.325Z,264
2023-01-27T09:07:45.565Z,257
2023-01-27T09:09:01.789Z,262
2023-01-27T09:10:18.038Z,264
2023-01-27T09:11:34.280Z,270
2023-01-27T09:12:50.516Z,271
2023-01-27T09:14:06.748Z,272
2023-01-27T09:15:22.982Z,279
2023-01-27T09:16:38.253Z,283
2023-01-27T09:17:54.478Z,283
2023-01-27T09:19:10.724Z,281
2023-01-27T09:20:26.966Z,273
2023-01-27T09:21:43.212Z,278
2023-01-27T09:22:59.442Z,302
2023-01-27T09:24:15.689Z,325
2023-01-27T09:25:31.920Z,321
2023-01-27T09:26:48.154Z,341
2023-01-27T09:28:04.412Z,368
2023-01-27T09:29:20.639Z,368
2023-01-27T09:30:36.880Z,398
2023-01-27T09:31:53.123Z,419
2023-01-27T09:33:08.383Z,421
2023-01-27T09:34:24.623Z,416
2023-01-27T09:35:40.856Z,437
2023-01-27T09:36:57.085Z,497
2023-01-27T09:39:29.584Z,454
2023-01-27T09:40:45.818Z,465
2023-01-27T09:42:02.062Z,468
2023-01-27T09:43:18.300Z,490
2023-01-27T09:44:34.537Z,510
2023-01-27T09:45:50.760Z,507
2023-01-27T09:47:07.012Z,488
2023-01-27T09:48:23.251Z,503
2023-01-27T09:49:38.508Z,512
2023-01-27T09:50:54.735Z,491
2023-01-27T09:52:10.983Z,442
2023-01-27T09:53:27.234Z,480
2023-01-27T09:54:43.469Z,541
2023-01-27T09:55:58.728Z,572
2023-01-27T09:57:14.968Z,547
2023-01-27T09:58:31.213Z,526
2023-01-27T09:59:47.445Z,595
2023-01-27T10:01:03.685Z,609
2023-01-27T10:02:19.928Z,559
2023-01-27T10:03:36.160Z,628
2023-01-27T10:04:52.406Z,719
2023-01-27T10:06:08.630Z,718
2023-01-27T10:07:24.877Z,647
2023-01-27T10:08:41.112Z,528
2023-01-27T10:09:57.363Z,535
2023-01-27T10:11:13.589Z,574
2023-01-27T10:12:28.859Z,531
2023-01-27T10:13:45.095Z,488
2023-01-27T10:15:01.339Z,445
2023-01-27T10:16:17.580Z,432
2023-01-27T10:17:33.811Z,417
2023-01-27T10:18:50.054Z,422
2023-01-27T10:20:06.282Z,426
2023-01-27T10:21:22.530Z,491
2023-01-27T10:22:38.774Z,484
2023-01-27T10:23:55.002Z,492
2023-01-27T10:25:11.245Z,527
2023-01-27T10:26:27.497Z,534
2023-01-27T10:27:43.734Z,554
2023-01-27T10:28:58.973Z,578
2023-01-27T10:30:15.223Z,591
2023-01-27T10:31:31.467Z,558
2023-01-27T10:32:47.696Z,479
2023-01-27T10:34:03.947Z,507
2023-01-27T10:35:20.183Z,525
2023-01-27T10:36:36.416Z,561
2023-01-27T10:37:52.665Z,538
2023-01-27T10:39:08.899Z,491
2023-01-27T10:40:25.128Z,518
2023-01-27T10:41:41.380Z,553
2023-01-27T10:42:57.613Z,545
2023-01-27T10:44:13.846Z,545
2023-01-27T10:45:29.110Z,534
2023-01-27T10:46:45.347Z,486
2023-01-27T10:48:01.594Z,433
2023-01-27T10:49:17.834Z,464
2023-01-27T10:50:34.061Z,454
2023-01-27T10:51:50.311Z,443
2023-01-27T10:53:06.555Z,504
2023-01-27T10:54:22.782Z,471
2023-01-27T10:55:39.026Z,468
2023-01-27T10:56:55.261Z,471
2023-01-27T10:58:11.509Z,470
2023-01-27T10:59:27.742Z,474
2023-01-27T11:00:43.980Z,464
2023-01-27T11:01:59.244Z,459
2023-01-27T11:03:15.470Z,432
2023-01-27T11:04:31.723Z,434
2023-01-27T11:05:47.964Z,471
2023-01-27T11:07:04.205Z,471
2023-01-27T11:08:20.442Z,450
2023-01-27T11:09:36.686Z,415
2023-01-27T11:10:52.911Z,527
2023-01-27T11:12:09.157Z,520
2023-01-27T11:13:25.385Z,545
2023-01-27T11:14:41.641Z,527
2023-01-27T11:15:57.881Z,562
2023-01-27T11:17:14.114Z,609
2023-01-27T11:18:29.368Z,540
2023-01-27T11:19:45.600Z,573
2023-01-27T11:21:01.839Z,543
2023-01-27T11:22:18.088Z,539
2023-01-27T11:23:34.323Z,566
2023-01-27T11:24:50.558Z,549
2023-01-27T11:26:06.814Z,481
2023-01-27T11:27:23.047Z,468
2023-01-27T11:28:39.280Z,476
2023-01-27T11:29:55.532Z,496
2023-01-27T11:31:11.757Z,485
2023-01-27T11:32:28.005Z,464
2023-01-27T11:33:44.247Z,485
2023-01-27T11:34:59.494Z,535
2023-01-27T11:36:15.743Z,521
2023-01-27T11:37:31.981Z,560
2023-01-27T11:38:48.210Z,592
2023-01-27T11:40:04.449Z,594
2023-01-27T11:41:20.699Z,532
2023-01-27T11:42:36.926Z,443
2023-01-27T11:43:53.169Z,507
2023-01-27T11:45:09.416Z,508
2023-01-27T11:46:25.653Z,497
2023-01-27T11:47:41.889Z,537
2023-01-27T11:48:58.120Z,586
2023-01-27T11:50:14.378Z,617
2023-01-27T11:51:29.633Z,682
2023-01-27T11:52:45.864Z,620
2023-01-27T11:54:02.107Z,781
2023-01-27T11:55:18.340Z,657
2023-01-27T11:56:34.572Z,561
2023-01-27T11:57:50.815Z,586
2023-01-27T11:59:07.070Z,567
2023-01-27T12:00:23.309Z,535
2023-01-27T12:01:39.531Z,518
2023-01-27T12:02:55.770Z,519
2023-01-27T12:04:12.020Z,492
2023-01-27T12:05:28.255Z,526
2023-01-27T12:06:44.490Z,529
2023-01-27T12:07:59.754Z,710
2023-01-27T12:09:16.000Z,761
2023-01-27T12:10:32.239Z,741
2023-01-27T12:11:48.474Z,790
2023-01-27T12:13:04.718Z,835
2023-01-27T12:14:20.948Z,769
2023-01-27T12:15:37.198Z,813
2023-01-27T12:16:53.432Z,781
2023-01-27T12:18:09.667Z,763
2023-01-27T12:19:25.897Z,821
2023-01-27T12:20:42.134Z,971
2023-01-27T12:21:58.387Z,1115
2023-01-27T12:23:14.625Z,1161
2023-01-27T12:24:29.871Z,1246
2023-01-27T12:25:46.125Z,1098
2023-01-27T12:27:02.365Z,1564
2023-01-27T12:28:18.586Z,1569
2023-01-27T12:29:34.841Z,1789
2023-01-27T12:30:51.084Z,1312
2023-01-27T12:32:07.318Z,1031
2023-01-27T12:33:23.561Z,1883
2023-01-27T12:34:39.794Z,2067
2023-01-27T12:35:56.041Z,1859
2023-01-27T12:37:12.267Z,1518
2023-01-27T12:38:28.518Z,3117
2023-01-27T12:39:44.740Z,1988
2023-01-27T12:41:00.001Z,1775
2023-01-27T12:42:16.257Z,2512
2023-01-27T12:43:32.485Z,1761
2023-01-27T12:44:48.718Z,1228
2023-01-27T12:46:04.961Z,915
2023-01-27T12:47:21.210Z,942
2023-01-27T12:48:37.448Z,1025
2023-01-27T12:49:53.689Z,842
2023-01-27T12:51:09.913Z,660
2023-01-27T12:52:26.149Z,586
2023-01-27T12:53:42.397Z,746
2023-01-27T12:54:58.630Z,774
2023-01-27T12:56:14.872Z,590
2023-01-27T12:57:30.140Z,541
2023-01-27T12:58:46.365Z,599
2023-01-27T13:00:02.618Z,550
2023-01-27T13:01:18.844Z,574
2023-01-27T13:02:35.099Z,584
2023-01-27T13:03:51.336Z,453
2023-01-27T13:05:07.560Z,455
2023-01-27T13:06:23.811Z,439
2023-01-27T13:07:40.046Z,484
2023-01-27T13:08:56.281Z,514
2023-01-27T13:10:12.519Z,625
2023-01-27T13:11:28.760Z,581
2023-01-27T13:12:45.011Z,617
2023-01-27T13:14:00.252Z,625
2023-01-27T13:15:16.491Z,532
2023-01-27T13:16:32.731Z,399
2023-01-27T13:17:48.985Z,464
2023-01-27T13:19:05.217Z,536
2023-01-27T13:20:21.447Z,489
2023-01-27T13:21:37.700Z,434
2023-01-27T13:22:53.945Z,335
2023-01-27T13:24:10.167Z,345
2023-01-27T13:25:26.418Z,585
2023-01-27T13:26:42.663Z,700
2023-01-27T13:27:58.890Z,643
2023-01-27T13:29:15.123Z,635
2023-01-27T13:30:30.392Z,554
2023-01-27T13:31:46.637Z,461
2023-01-27T13:33:02.857Z,419
2023-01-27T13:34:19.100Z,356
2023-01-27T13:35:35.349Z,383
2023-01-27T13:36:51.583Z,367
2023-01-27T13:38:07.822Z,379
2023-01-27T13:39:24.059Z,334
2023-01-27T13:40:40.300Z,365
2023-01-27T13:41:56.540Z,449
2023-01-27T13:43:12.781Z,467
2023-01-27T13:44:29.016Z,399
2023-01-27T13:45:45.261Z,451
2023-01-27T13:47:00.513Z,479
2023-01-27T13:48:16.745Z,365
2023-01-27T13:49:32.998Z,373
2023-01-27T13:50:49.234Z,402
2023-01-27T13:52:05.481Z,364
2023-01-27T13:53:21.710Z,318
2023-01-27T13:54:37.956Z,274
2023-01-27T13:55:54.191Z,315
2023-01-27T13:57:10.440Z,312
2023-01-27T13:58:26.672Z,273
2023-01-27T13:59:42.916Z,255
2023-01-27T14:00:59.140Z,309
2023-01-27T14:02:15.398Z,291
2023-01-27T14:03:30.652Z,228
2023-01-27T14:04:46.891Z,264
2023-01-27T14:06:03.117Z,299
2023-01-27T14:07:19.359Z,258
2023-01-27T14:08:35.609Z,249
2023-01-27T14:09:51.835Z,254
2023-01-27T14:11:07.095Z,325
2023-01-27T14:12:23.342Z,267
2023-01-27T14:13:39.594Z,256
2023-01-27T14:14:55.816Z,256
2023-01-27T14:16:12.061Z,231
2023-01-27T14:17:28.301Z,221
2023-01-27T14:18:44.538Z,246
2023-01-27T14:20:00.779Z,261
2023-01-27T14:21:17.017Z,211
2023-01-27T14:22:33.265Z,254
2023-01-27T14:23:49.495Z,322
2023-01-27T14:25:05.740Z,240
2023-01-27T14:26:21.984Z,241
2023-01-27T14:27:37.241Z,214
2023-01-27T14:28:53.469Z,295
2023-01-27T14:30:09.719Z,248
2023-01-27T14:31:25.939Z,238
2023-01-27T14:33:58.420Z,329
2023-01-27T14:35:14.665Z,212
2023-01-27T14:36:30.900Z,282
2023-01-27T14:37:47.153Z,305
2023-01-27T14:39:03.389Z,300
2023-01-27T14:40:19.630Z,310
2023-01-27T14:41:35.872Z,262
2023-01-27T14:42:52.115Z,223
2023-01-27T14:44:07.368Z,254
2023-01-27T14:45:23.594Z,227
2023-01-27T14:46:39.848Z,206
2023-01-27T14:47:56.083Z,211
2023-01-27T14:49:12.321Z,267
2023-01-27T14:50:28.557Z,294
2023-01-27T14:51:44.797Z,216
2023-01-27T14:53:01.029Z,164
2023-01-27T14:54:17.286Z,151
2023-01-27T14:55:33.524Z,199
2023-01-27T14:56:49.765Z,164
2023-01-27T14:58:06.004Z,245
2023-01-27T14:59:22.238Z,254
2023-01-27T15:00:37.000Z,329
2023-01-27T15:01:53.744Z,227
2023-01-27T15:03:09.966Z,290
2023-01-27T15:04:26.203Z,235
2023-01-27T15:05:42.443Z,211
2023-01-27T15:06:58.697Z,171
2023-01-27T15:08:14.944Z,176
2023-01-27T15:09:31.182Z,141
2023-01-27T15:10:47.414Z,120
2023-01-27T15:12:03.662Z,142
2023-01-27T15:13:19.900Z,157
2023-01-27T15:14:36.130Z,159
2023-01-27T15:15:52.382Z,160
2023-01-27T15:17:07.633Z,150
2023-01-27T15:18:23.864Z,129
2023-01-27T15:19:40.108Z,121
2023-01-27T15:20:56.345Z,80
2023-01-27T15:22:12.580Z,100
2023-01-27T15:23:28.836Z,120
2023-01-27T15:24:45.060Z,111
2023-01-27T15:26:01.306Z,110
2023-01-27T15:27:17.550Z,98
2023-01-27T15:28:33.781Z,81
2023-01-27T15:29:50.030Z,87
2023-01-27T15:31:06.266Z,76
2023-01-27T15:32:22.496Z,67
2023-01-27T15:33:37.761Z,66
2023-01-27T15:34:54.003Z,67
2023-01-27T15:36:10.250Z,68
2023-01-27T15:37:26.475Z,64
2023-01-27T15:38:42.714Z,52
2023-01-27T15:39:58.954Z,61
2023-01-27T15:41:15.194Z,57
2023-01-27T15:42:31.441Z,53
2023-01-27T15:43:47.673Z,49
2023-01-27T15:45:03.910Z,40
2023-01-27T15:46:20.151Z,39
2023-01-27T15:47:36.394Z,37
2023-01-27T15:48:52.641Z,28
2023-01-27T15:50:07.881Z,25
2023-01-27T15:51:24.122Z,22
2023-01-27T15:52:40.375Z,24
2023-01-27T15:53:56.611Z,23
2023-01-27T15:55:12.851Z,18
2023-01-27T15:56:29.094Z,14
2023-01-27T15:57:45.317Z,10
2023-01-27T15:59:01.556Z,8
2023-01-27T16:00:17.805Z,10
2023-01-27T16:01:34.052Z,5
2023-01-27T16:02:50.279Z,4
2023-01-27T16:04:06.521Z,6
2023-01-27T16:05:22.770Z,1
2023-01-27T16:06:38.012Z,1
2023-01-27T16:07:54.248Z,1
2023-01-27T16:09:10.487Z,2
2023-01-27T16:10:26.735Z,1
2023-01-27T16:11:42.947Z,2
2023-01-27T16:12:59.176Z,2
2023-01-27T16:14:15.415Z,1
2023-01-27T16:15:31.675Z,1
2023-01-27T16:16:47.911Z,1
2023-01-27T16:18:04.138Z,1
2023-01-27T16:19:20.429Z,0
2023-01-27T16:20:36.722Z,0
2023-01-27T16:21:53.028Z,0
2023-01-27T16:23:08.333Z,0
2023-01-27T16:24:24.627Z,0
2023-01-27T16:25:40.911Z,0
2023-01-27T16:26:57.204Z,0
2023-01-27T16:28:13.502Z,0
2023-01-27T16:29:29.804Z,0
2023-01-27T16:30:46.092Z,0
2023-01-27T16:32:02.393Z,0
2023-01-27T16:33:18.685Z,0
2023-01-27T16:34:34.981Z,0
2023-01-27T16:35:51.277Z,0
2023-01-27T16:37:07.559Z,0
2023-01-27T16:38:23.854Z,0
2023-01-27T16:39:39.170Z,0
2023-01-27T16:40:55.456Z,0
2023-01-27T16:42:11.761Z,0
2023-01-27T16:43:28.050Z,0
2023-01-27T16:44:44.338Z,0
2023-01-27T16:46:00.640Z,0
2023-01-27T16:47:16.917Z,0
2023-01-27T16:48:33.211Z,0
2023-01-27T16:49:49.515Z,0
2023-01-27T16:51:05.000Z,0
2023-01-27T16:52:22.091Z,0
2023-01-27T16:53:38.390Z,0
2023-01-27T16:54:54.677Z,0
2023-01-27T16:56:10.000Z,0
2023-01-27T16:57:26.287Z,0
2023-01-27T16:58:42.586Z,0
2023-01-27T16:59:58.867Z,0
2023-01-27T17:01:15.166Z,0
2023-01-27T17:02:31.465Z,0
2023-01-27T17:03:47.751Z,0
2023-01-27T17:05:04.040Z,0
2023-01-27T17:06:20.340Z,0
2023-01-27T17:07:36.624Z,0
2023-01-27T17:08:52.933Z,0
2023-01-27T17:10:09.225Z,0
2023-01-27T17:11:25.522Z,0
2023-01-27T17:12:40.817Z,0
2023-01-27T17:13:57.120Z,0
2023-01-27T17:15:13.414Z,0
2023-01-27T17:16:29.714Z,0
2023-01-27T17:17:45.989Z,0
2023-01-27T17:19:02.298Z,0
2023-01-27T17:20:18.574Z,0
2023-01-27T17:21:34.888Z,0
2023-01-27T17:22:51.160Z,0
2023-01-27T17:24:07.469Z,0
2023-01-27T17:25:23.754Z,0
2023-01-27T17:26:40.052Z,0
2023-01-27T17:27:56.344Z,0
2023-01-27T17:29:11.645Z,0
2023-01-27T17:30:27.952Z,0
2023-01-27T17:31:44.235Z,0
2023-01-27T17:33:00.527Z,0
2023-01-27T17:34:16.819Z,0
2023-01-27T17:35:33.124Z,0
2023-01-27T17:36:49.411Z,0
2023-01-27T17:38:05.709Z,0
2023-01-27T17:39:21.998Z,0
2023-01-27T17:40:38.292Z,0
2023-01-27T17:41:54.586Z,0
2023-01-27T17:43:10.886Z,0
2023-01-27T17:44:27.183Z,0
2023-01-27T17:45:42.479Z,0
2023-01-27T17:46:58.787Z,0
2023-01-27T17:48:15.079Z,0
2023-01-27T17:49:31.358Z,0
2023-01-27T17:50:47.668Z,0
2023-01-27T17:52:03.944Z,0
2023-01-27T17:53:20.243Z,0
2023-01-27T17:54:36.540Z,0
2023-01-27T17:55:52.827Z,0
2023-01-27T17:57:09.132Z,0
2023-01-27T17:58:25.414Z,0
2023-01-27T17:59:41.719Z,0
2023-01-27T18:00:58.004Z,0
2023-01-27T18:02:13.313Z,0
2023-01-27T18:03:29.617Z,0
2023-01-27T18:04:45.893Z,0
2023-01-27T18:06:02.198Z,0
2023-01-27T18:07:18.484Z,0
2023-01-27T18:08:34.773Z,0
2023-01-27T18:09:51.064Z,0
2023-01-27T18:11:07.362Z,0
2023-01-27T18:12:23.655Z,0
2023-01-27T18:13:39.948Z,0
2023-01-27T18:14:56.238Z,0